Flight Track Log - Related Links

Times and Time Zones

All times are in EDT time to prevent confusion due to time zone crossing. See the N960DL flight status page for this flight to view local times or setup timezone preferences in your user account.

Time Position Orientation Groundspeed Altitude Reporting Facility
EDT Latitude Longitude Course Direction KTS MPH feet Rate Location/Type
Tue 11:00:16 AM 32.8833 -97.0333 180° South 177 204 1,200  Level Dallas / Fort Worth TRACON
Tue 11:01:00 AM 32.8500 -97.0333 180° South 205 236 2,300 1,792 Climbing Dallas / Fort Worth TRACON
Tue 11:02:50 AM 32.7242 -97.0306 179° South 236 272 5,800 2,012 Climbing Fort Worth Center
Tue 11:03:50 AM 32.6928 -96.9494 115° Southeast 221 254 8,000 2,050 Climbing Fort Worth Center
Tue 11:04:50 AM 32.6983 -96.8333 87° East 248 285 9,900 1,350 Climbing Fort Worth Center
Tue 11:05:50 AM 32.7103 -96.7147 83° East 338 389 10,700 1,400 Climbing Fort Worth Center
Tue 11:06:50 AM 32.7283 -96.5836 81° East 392 451 12,700 2,050 Climbing Fort Worth Center
Tue 11:07:50 AM 32.7461 -96.4453 81° East 411 473 14,800 2,000 Climbing Fort Worth Center
Tue 11:08:50 AM 32.7533 -96.2994 87° East 432 497 16,700 1,850 Climbing Fort Worth Center
Tue 11:09:50 AM 32.7356 -96.1711 99° East 438 504 18,500 1,700 Climbing Fort Worth Center
Tue 11:10:50 AM 32.7108 -96.0061 100° East 458 527 20,100 1,500 Climbing Fort Worth Center
Tue 11:11:50 AM 32.6861 -95.8683 102° East 468 539 21,500 1,300 Climbing Fort Worth Center
Tue 11:12:50 AM 32.6608 -95.6958 100° East 477 549 22,700 1,500 Climbing Fort Worth Center
Tue 11:13:50 AM 32.6611 -95.5528 90° East 486 559 24,500 1,300 Climbing Fort Worth Center
Tue 11:14:50 AM 32.6753 -95.3994 84° East 464 534 25,300 1,050 Climbing Fort Worth Center
Tue 11:15:50 AM 32.6847 -95.2192 86° East 486 559 26,600 1,200 Climbing Fort Worth Center
Tue 11:16:50 AM 32.6967 -95.0583 85° East 486 559 27,700 1,250 Climbing Fort Worth Center
Tue 11:17:50 AM 32.7081 -94.8975 85° East 486 559 29,100 1,200 Climbing Fort Worth Center
Tue 11:18:50 AM 32.6964 -94.7400 95° East 481 554 30,100 950 Climbing Fort Worth Center
Tue 11:19:50 AM 32.6431 -94.5911 113° Southeast 469 540 31,000 450 Climbing Fort Worth Center
Tue 11:20:50 AM 32.5939 -94.4422 111° Southeast 474 545 31,000  Level Fort Worth Center
Tue 11:21:50 AM 32.5442 -94.2936 112° Southeast 485 558 31,000  Level Fort Worth Center
Tue 11:22:50 AM 32.4925 -94.1450 112° Southeast 485 558 31,000  Level Fort Worth Center
Tue 11:23:50 AM 32.4425 -93.9967 112° Southeast 490 564 31,000  Level Fort Worth Center
Tue 11:24:50 AM 32.3906 -93.8511 113° Southeast 485 558 31,000  Level Fort Worth Center
Tue 11:25:50 AM 32.3403 -93.7031 112° Southeast 485 558 31,000  Level Fort Worth Center
Tue 11:28:04 AM 32.2297 -93.3783 112° Southeast 492 566 31,000  Level Houston Center
Tue 11:29:06 AM 32.1789 -93.2278 112° Southeast 494 568 31,000  Level Houston Center
Tue 11:30:08 AM 32.1247 -93.0789 113° Southeast 494 568 31,000  Level Houston Center
Tue 11:31:10 AM 32.0639 -92.9172 114° Southeast 497 572 31,000  Level Houston Center
Tue 11:32:13 AM 32.0086 -92.7689 114° Southeast 495 570 31,000  Level Houston Center
Tue 11:33:15 AM 31.9606 -92.6164 110° East 495 570 31,000  Level Houston Center
Tue 11:34:17 AM 31.9292 -92.4606 103° East 491 565 31,000  Level Houston Center
Tue 11:35:19 AM 31.8975 -92.3042 103° East 491 565 31,000  Level Houston Center
Tue 11:36:21 AM 31.8606 -92.1186 103° East 487 560 31,000  Level Houston Center
Tue 11:37:23 AM 31.8322 -91.9733 103° East 486 559 31,000  Level Houston Center
Tue 11:38:25 AM 31.8003 -91.8172 103° East 489 563 31,000  Level Houston Center
Tue 11:39:27 AM 31.7692 -91.6617 103° East 488 562 31,000  Level Houston Center
Tue 11:40:30 AM 31.7325 -91.4747 103° East 489 563 31,000  Level Houston Center
Tue 11:41:32 AM 31.7014 -91.3178 103° East 492 566 31,000  Level Houston Center
Tue 11:42:34 AM 31.6703 -91.1622 103° East 491 565 31,000 290 Level Houston Center
Tue 11:43:36 AM 31.6403 -91.0106 103° East 491 565 31,600 629 Climbing Houston Center
Tue 11:44:38 AM 31.6089 -90.8553 103° East 490 564 32,300 576 Climbing Houston Center
Tue 11:45:41 AM 31.5778 -90.7011 103° East 487 560 32,800 339 Climbing Houston Center
Tue 11:46:42 AM 31.5400 -90.5164 103° East 486 559 33,000 98 Climbing Houston Center
Tue 11:47:44 AM 31.5092 -90.3633 103° East 481 554 33,000  Level Houston Center
Tue 11:48:46 AM 31.5028 -90.2083 93° East 475 547 33,000  Level Houston Center
Tue 11:49:49 AM 31.5019 -90.0525 90° East 477 549 33,000  Level Houston Center
Tue 11:50:51 AM 31.5003 -89.8961 91° East 478 550 33,000  Level Houston Center
Tue 11:51:53 AM 31.4997 -89.7408 90° East 477 549 33,000  Level Houston Center
Tue 11:52:55 AM 31.4983 -89.5542 90° East 477 549 33,000  Level Houston Center
Tue 11:53:57 AM 31.4956 -89.4133 91° East 478 550 33,000  Level Houston Center
Tue 11:54:59 AM 31.4917 -89.2594 92° East 475 547 33,000  Level Houston Center
Tue 11:56:01 AM 31.4886 -89.0731 91° East 476 548 33,000  Level Houston Center
Tue 11:57:03 AM 31.4881 -88.9164 90° East 479 551 33,000  Level Houston Center
Tue 11:58:05 AM 31.4850 -88.7611 91° East 477 549 33,000  Level Houston Center
Tue 11:59:07 AM 31.4833 -88.6044 91° East 479 551 33,000  Level Houston Center
Tue 12:00:09 PM 31.4806 -88.4486 91° East 477 549 33,000  Level Houston Center
Tue 12:01:12 PM 31.4781 -88.2942 91° East 473 544 33,000  Level Houston Center
Tue 12:02:14 PM 31.5019 -88.1453 79° East 469 540 33,000  Level Houston Center
Tue 12:03:16 PM 31.5833 -87.9942 58° Northeast 454 522 33,000 -97 Level Houston Center
Tue 12:04:18 PM 31.6539 -87.8664 57° Northeast 444 511 32,800 -1,082 Descending Atlanta Center
Tue 12:05:18 PM 31.7247 -87.7378 57° Northeast 455 524 30,800 -1,550 Descending Atlanta Center
Tue 12:06:18 PM 31.7953 -87.6086 57° Northeast 462 532 29,700 -850 Descending Atlanta Center
Tue 12:07:18 PM 31.8678 -87.4747 57° Northeast 468 539 29,100 -350 Descending Atlanta Center
Tue 12:08:18 PM 31.9383 -87.3403 58° Northeast 468 539 29,000 -50 Descending Atlanta Center
Tue 12:09:18 PM 32.0022 -87.2178 58° Northeast 473 544 29,000  Level Atlanta Center
Tue 12:10:18 PM 32.0744 -87.0831 58° Northeast 473 544 29,000  Level Atlanta Center
Tue 12:11:18 PM 32.1464 -86.9481 58° Northeast 478 550 29,000  Level Atlanta Center
Tue 12:12:18 PM 32.2186 -86.8131 58° Northeast 478 550 29,000  Level Atlanta Center
Tue 12:13:18 PM 32.3031 -86.6706 55° Northeast 478 550 29,000 -400 Level Atlanta Center
Tue 12:14:18 PM 32.3747 -86.5350 58° Northeast 483 556 28,200 -950 Descending Atlanta Center
Tue 12:15:18 PM 32.4272 -86.4061 64° Northeast 483 556 27,100 -1,100 Descending Atlanta Center
Tue 12:16:18 PM 32.5117 -86.2508 57° Northeast 487 560 26,000 -1,050 Descending Atlanta Center
Tue 12:17:18 PM 32.5828 -86.1119 59° Northeast 492 566 25,000 -1,400 Descending Atlanta Center
Tue 12:18:18 PM 32.6497 -85.9778 59° Northeast 487 560 23,200 -1,950 Descending Atlanta Center
Tue 12:19:18 PM 32.7164 -85.8486 58° Northeast 468 539 21,100 -1,700 Descending Atlanta Center
Tue 12:20:18 PM 32.7786 -85.7286 58° Northeast 445 512 19,800 -1,150 Descending Atlanta Center
Tue 12:21:18 PM 32.8408 -85.6064 59° Northeast 428 493 18,800 -950 Descending Atlanta Center
Tue 12:22:18 PM 32.9006 -85.4911 58° Northeast 417 480 17,900 -850 Descending Atlanta Center
Tue 12:23:18 PM 32.9625 -85.3733 58° Northeast 417 480 17,100 -700 Descending Atlanta Center
Tue 12:24:18 PM 33.0222 -85.2553 59° Northeast 417 480 16,500 -950 Descending Atlanta Center
Tue 12:25:18 PM 33.0919 -85.1547 50° Northeast 404 465 15,200 -1,100 Descending Atlanta Center
Tue 12:26:18 PM 33.1556 -85.0661 49° Northeast 399 459 14,300 -1,139 Descending Atlanta Center
Tue 12:27:56 PM 33.2833 -84.9000 47° Northeast 387 445 12,200 -879 Descending Atlanta TRACON
Tue 12:28:55 PM 33.3500 -84.8000 51° Northeast 352 405 12,000 -100 Descending Atlanta TRACON
Tue 12:29:56 PM 33.4167 -84.7167 46° Northeast 322 371 12,000  Level Atlanta TRACON
Tue 12:30:56 PM 33.4667 -84.6500 48° Northeast 320 368 12,000  Level Atlanta TRACON
Tue 12:31:50 PM 33.5167 -84.5667 54° Northeast 293 337 12,000 -1,000 Level Atlanta TRACON
Tue 12:32:56 PM 33.5500 -84.4833 64° Northeast 295 339 10,000 -1,952 Descending Atlanta TRACON
Tue 12:33:56 PM 33.5500 -84.3833 90° East 290 334 7,900 -2,105 Descending Atlanta TRACON
Tue 12:34:50 PM 33.5500 -84.3000 90° East 276 318 6,000 -2,000 Descending Atlanta TRACON
Tue 12:35:56 PM 33.5500 -84.2000 90° East 273 314 3,900 -1,400 Descending Atlanta TRACON
Tue 12:36:50 PM 33.5500 -84.1167 90° East 250 288 3,200 -450 Descending Atlanta TRACON
Tue 12:37:56 PM 33.6000 -84.0833 29° Northeast 189 217 3,000 -95 Descending Atlanta TRACON
Tue 12:38:56 PM 33.6167 -84.1333 292° West 172 198 3,000  Level Atlanta TRACON
Tue 12:39:50 PM 33.6167 -84.1833 270° West 176 203 3,000  Level Atlanta TRACON
Tue 12:40:50 PM 33.6167 -84.2500 270° West 180 207 3,000  Level Atlanta TRACON

Login

Don't have an account? Register now (free) for customized features, flight alerts, and more!